createdAt,value
2019-05-10T00:00:49.844Z,0.00
2019-05-10T00:01:49.754Z,0.00
2019-05-10T00:02:49.702Z,0.00
2019-05-10T00:03:49.649Z,0.00
2019-05-10T00:04:49.595Z,0.00
2019-05-10T00:05:49.584Z,0.00
2019-05-10T00:06:49.487Z,0.00
2019-05-10T00:07:49.436Z,0.00
2019-05-10T00:08:49.381Z,0.00
2019-05-10T00:09:49.327Z,0.00
2019-05-10T00:10:49.322Z,0.00
2019-05-10T00:11:49.686Z,0.00
2019-05-10T00:12:49.167Z,0.00
2019-05-10T00:13:49.121Z,0.00
2019-05-10T00:14:49.060Z,0.00
2019-05-10T00:15:49.041Z,0.00
2019-05-10T00:16:49.045Z,0.00
2019-05-10T00:17:48.901Z,0.00
2019-05-10T00:18:48.848Z,0.00
2019-05-10T00:19:48.790Z,0.00
2019-05-10T00:20:48.739Z,0.00
2019-05-10T00:21:48.707Z,0.00
2019-05-10T00:22:48.637Z,0.00
2019-05-10T00:23:48.577Z,0.00
2019-05-10T00:25:02.210Z,0.00
2019-05-10T00:25:51.221Z,0.00
2019-05-10T00:26:48.454Z,0.00
2019-05-10T00:27:48.368Z,0.00
2019-05-10T00:28:48.313Z,0.00
2019-05-10T00:29:48.284Z,0.00
2019-05-10T00:30:48.209Z,0.00
2019-05-10T00:31:48.198Z,0.00
2019-05-10T00:32:48.098Z,0.00
2019-05-10T00:33:48.050Z,0.00
2019-05-10T00:34:47.992Z,0.00
2019-05-10T00:35:47.940Z,0.00
2019-05-10T00:36:47.917Z,0.00
2019-05-10T00:37:47.832Z,0.00
2019-05-10T00:38:47.781Z,0.00
2019-05-10T00:39:47.756Z,0.00
2019-05-10T00:40:47.670Z,0.00
2019-05-10T00:41:47.627Z,0.00
2019-05-10T00:42:47.562Z,0.00
2019-05-10T00:43:47.521Z,0.00
2019-05-10T00:44:47.492Z,0.00
2019-05-10T00:45:47.402Z,0.00
2019-05-10T00:46:47.355Z,0.00
2019-05-10T00:47:47.298Z,0.00
2019-05-10T00:48:47.241Z,0.00
2019-05-10T00:49:47.218Z,0.00
2019-05-10T00:50:47.135Z,0.00
2019-05-10T00:51:47.078Z,0.00
2019-05-10T00:52:47.027Z,0.00
2019-05-10T00:53:47.009Z,0.00
2019-05-10T00:54:46.920Z,0.00
2019-05-10T00:55:46.865Z,0.00
2019-05-10T00:56:46.817Z,0.00
2019-05-10T00:57:46.762Z,0.00
2019-05-10T00:58:46.740Z,0.00
2019-05-10T00:59:46.705Z,0.00
2019-05-10T01:00:46.600Z,0.00
2019-05-10T01:01:46.548Z,0.00
2019-05-10T01:02:46.496Z,0.00
2019-05-10T01:03:46.433Z,0.00
2019-05-10T01:04:46.422Z,0.00
2019-05-10T01:05:46.331Z,0.00
2019-05-10T01:06:46.276Z,0.00
2019-05-10T01:07:46.223Z,0.00
2019-05-10T01:08:46.171Z,0.00
2019-05-10T01:09:46.147Z,0.00
2019-05-10T01:10:46.100Z,0.00
2019-05-10T01:11:46.010Z,0.00
2019-05-10T01:12:45.954Z,0.00
2019-05-10T01:13:45.898Z,0.00
2019-05-10T01:14:45.850Z,0.00
2019-05-10T01:15:46.932Z,0.00
2019-05-10T01:16:45.738Z,0.00
2019-05-10T01:17:45.688Z,0.00
2019-05-10T01:18:45.632Z,0.00
2019-05-10T01:19:45.578Z,0.00
2019-05-10T01:20:45.568Z,0.00
2019-05-10T01:21:45.473Z,0.00
2019-05-10T01:22:45.425Z,0.00
2019-05-10T01:23:45.369Z,0.00
2019-05-10T01:24:45.313Z,0.00
2019-05-10T01:25:45.297Z,0.00
2019-05-10T01:26:45.207Z,0.00
2019-05-10T01:27:45.149Z,0.00
2019-05-10T01:28:45.098Z,0.00
2019-05-10T01:29:45.044Z,0.00
2019-05-10T01:30:45.022Z,0.00
2019-05-10T01:31:44.980Z,0.00
2019-05-10T01:32:44.884Z,0.00
2019-05-10T01:33:44.830Z,0.00
2019-05-10T01:34:44.776Z,0.00
2019-05-10T01:35:44.722Z,0.00
2019-05-10T01:36:44.721Z,0.00
2019-05-10T01:37:44.617Z,0.00
2019-05-10T01:38:44.568Z,0.00
2019-05-10T01:39:44.505Z,0.00
2019-05-10T01:40:44.461Z,0.00
2019-05-10T01:41:44.445Z,0.00
2019-05-10T01:42:44.380Z,0.00
2019-05-10T01:43:44.291Z,0.00
2019-05-10T01:44:44.237Z,0.00
2019-05-10T01:45:44.191Z,0.00
2019-05-10T01:46:44.137Z,0.00
2019-05-10T01:47:44.116Z,0.00
2019-05-10T01:48:44.059Z,0.00
2019-05-10T01:49:43.972Z,0.00
2019-05-10T01:50:43.919Z,0.00
2019-05-10T01:51:43.862Z,0.00
2019-05-10T01:52:43.842Z,0.00
2019-05-10T01:53:43.757Z,0.00
2019-05-10T01:54:43.712Z,0.00
2019-05-10T01:55:52.177Z,0.00
2019-05-10T01:56:43.600Z,0.00
2019-05-10T01:57:43.571Z,0.00
2019-05-10T01:58:43.494Z,0.00
2019-05-10T01:59:43.471Z,0.00
2019-05-10T02:00:43.381Z,0.00
2019-05-10T02:01:43.327Z,0.00
2019-05-10T02:02:43.283Z,0.00
2019-05-10T02:03:43.218Z,0.00
2019-05-10T02:04:43.201Z,0.00
2019-05-10T02:05:43.144Z,0.00
2019-05-10T02:06:43.056Z,0.00
2019-05-10T02:07:43.006Z,0.00
2019-05-10T02:08:42.952Z,0.00
2019-05-10T02:09:42.943Z,0.00
2019-05-10T02:10:42.845Z,0.00
2019-05-10T02:11:42.790Z,0.00
2019-05-10T02:12:42.733Z,0.00
2019-05-10T02:13:42.681Z,0.00
2019-05-10T02:14:42.668Z,0.00
2019-05-10T02:15:42.573Z,0.00
2019-05-10T02:16:42.521Z,0.00
2019-05-10T02:17:42.469Z,0.00
2019-05-10T02:18:42.413Z,0.00
2019-05-10T02:19:42.446Z,0.00
2019-05-10T02:20:42.307Z,0.00
2019-05-10T02:21:42.250Z,0.00
2019-05-10T02:22:42.198Z,0.00
2019-05-10T02:23:42.183Z,0.00
2019-05-10T02:24:42.089Z,0.00
2019-05-10T02:25:42.034Z,0.00
2019-05-10T02:26:41.990Z,0.00
2019-05-10T02:27:41.926Z,0.00
2019-05-10T02:28:41.910Z,0.00
2019-05-10T02:29:41.824Z,0.00
2019-05-10T02:30:41.805Z,0.00
2019-05-10T02:31:41.712Z,0.00
2019-05-10T02:32:41.665Z,0.00
2019-05-10T02:33:41.636Z,0.00
2019-05-10T02:34:41.564Z,0.00
2019-05-10T02:35:41.501Z,0.00
2019-05-10T02:36:41.480Z,0.00
2019-05-10T02:37:41.391Z,0.00
2019-05-10T02:38:41.341Z,0.00
2019-05-10T02:39:41.285Z,0.00
2019-05-10T02:40:41.264Z,0.00
2019-05-10T02:41:41.174Z,0.00
2019-05-10T02:42:41.147Z,0.00
2019-05-10T02:43:41.075Z,0.00
2019-05-10T02:44:41.060Z,0.00
2019-05-10T02:45:40.965Z,0.00
2019-05-10T02:46:40.906Z,0.00
2019-05-10T02:47:40.850Z,0.00
2019-05-10T02:48:40.802Z,0.00
2019-05-10T02:49:40.786Z,0.00
2019-05-10T02:50:40.690Z,0.00
2019-05-10T02:51:40.668Z,0.00
2019-05-10T02:52:40.596Z,0.00
2019-05-10T02:53:40.533Z,0.00
2019-05-10T02:54:40.482Z,0.00
2019-05-10T02:55:40.419Z,0.00
2019-05-10T02:56:40.399Z,0.00
2019-05-10T02:57:40.350Z,0.00
2019-05-10T02:58:40.257Z,0.00
2019-05-10T02:59:40.207Z,0.00
2019-05-10T03:00:40.154Z,0.00
2019-05-10T03:01:40.099Z,0.00
2019-05-10T03:02:40.080Z,0.00
2019-05-10T03:03:39.989Z,0.00
2019-05-10T03:04:39.935Z,0.00
2019-05-10T03:05:39.885Z,0.00
2019-05-10T03:06:39.836Z,0.00
2019-05-10T03:07:39.826Z,0.00
2019-05-10T03:08:39.732Z,0.00
2019-05-10T03:09:39.668Z,0.00
2019-05-10T03:10:39.613Z,0.00
2019-05-10T03:11:39.556Z,0.00
2019-05-10T03:12:39.558Z,0.00
2019-05-10T03:13:39.451Z,0.00
2019-05-10T03:14:39.398Z,0.00
2019-05-10T03:15:39.343Z,0.00
2019-05-10T03:16:39.292Z,0.00
2019-05-10T03:17:39.286Z,0.00
2019-05-10T03:18:39.183Z,0.00
2019-05-10T03:19:39.126Z,0.00
2019-05-10T03:20:39.080Z,0.00
2019-05-10T03:21:39.020Z,0.00
2019-05-10T03:22:39.005Z,0.00
2019-05-10T03:23:38.915Z,0.00
2019-05-10T03:24:38.890Z,0.00
2019-05-10T03:25:38.826Z,0.00
2019-05-10T03:26:50.381Z,0.00
2019-05-10T03:27:38.697Z,4.00
2019-05-10T03:28:38.645Z,4.00
2019-05-10T03:29:38.633Z,8.00
2019-05-10T03:30:38.535Z,12.00
2019-05-10T03:31:38.481Z,12.00
2019-05-10T03:32:38.570Z,12.00
2019-05-10T03:33:38.413Z,12.00
2019-05-10T03:34:38.319Z,12.00
2019-05-10T03:35:38.262Z,12.00
2019-05-10T03:36:38.213Z,12.00
2019-05-10T03:37:38.161Z,12.00
2019-05-10T03:38:38.145Z,16.00
2019-05-10T03:39:38.053Z,16.00
2019-05-10T03:40:37.993Z,16.00
2019-05-10T03:41:37.942Z,20.00
2019-05-10T03:42:37.887Z,16.00
2019-05-10T03:43:37.864Z,16.00
2019-05-10T03:44:37.780Z,16.00
2019-05-10T03:45:37.727Z,20.00
2019-05-10T03:46:37.672Z,24.00
2019-05-10T03:47:37.651Z,32.00
2019-05-10T03:48:37.567Z,32.00
2019-05-10T03:49:37.510Z,36.00
2019-05-10T03:50:37.452Z,48.00
2019-05-10T03:51:37.398Z,64.00
2019-05-10T03:52:37.369Z,56.00
2019-05-10T03:53:37.296Z,56.00
2019-05-10T03:54:37.240Z,76.00
2019-05-10T03:55:37.184Z,88.00
2019-05-10T03:56:37.131Z,80.00
2019-05-10T03:57:37.119Z,80.00
2019-05-10T03:58:37.023Z,96.00
2019-05-10T03:59:36.977Z,104.00
2019-05-10T04:00:36.916Z,112.00
2019-05-10T04:01:36.859Z,108.00
2019-05-10T04:02:36.843Z,108.00
2019-05-10T04:03:36.751Z,128.00
2019-05-10T04:04:36.698Z,128.00
2019-05-10T04:05:36.643Z,92.00
2019-05-10T04:06:36.594Z,96.00
2019-05-10T04:07:36.574Z,92.00
2019-05-10T04:08:36.483Z,116.00
2019-05-10T04:09:36.432Z,140.00
2019-05-10T04:10:36.380Z,120.00
2019-05-10T04:11:36.326Z,84.00
2019-05-10T04:12:36.300Z,64.00
2019-05-10T04:13:36.245Z,64.00
2019-05-10T04:14:36.160Z,68.00
2019-05-10T04:15:36.147Z,84.00
2019-05-10T04:16:36.050Z,100.00
2019-05-10T04:17:36.022Z,108.00
2019-05-10T04:18:35.991Z,128.00
2019-05-10T04:19:35.892Z,168.00
2019-05-10T04:20:35.860Z,120.00
2019-05-10T04:21:35.800Z,124.00
2019-05-10T04:22:35.736Z,124.00
2019-05-10T04:23:35.730Z,100.00
2019-05-10T04:24:36.661Z,124.00
2019-05-10T04:25:35.569Z,124.00
2019-05-10T04:26:35.512Z,144.00
2019-05-10T04:27:35.455Z,140.00
2019-05-10T04:28:35.453Z,148.00
2019-05-10T04:29:35.360Z,172.00
2019-05-10T04:30:35.297Z,208.00
2019-05-10T04:31:35.238Z,236.00
2019-05-10T04:32:35.189Z,208.00
2019-05-10T04:33:35.163Z,228.00
2019-05-10T04:34:35.110Z,240.00
2019-05-10T04:35:35.025Z,232.00
2019-05-10T04:36:34.969Z,236.00
2019-05-10T04:37:34.916Z,248.00
2019-05-10T04:38:34.858Z,252.00
2019-05-10T04:39:34.841Z,304.00
2019-05-10T04:40:34.784Z,300.00
2019-05-10T04:41:34.708Z,316.00
2019-05-10T04:42:34.642Z,320.00
2019-05-10T04:43:34.588Z,444.00
2019-05-10T04:44:34.574Z,484.00
2019-05-10T04:45:34.485Z,536.00
2019-05-10T04:46:34.469Z,572.00
2019-05-10T04:47:34.373Z,472.00
2019-05-10T04:48:34.320Z,504.00
2019-05-10T04:49:34.263Z,456.00
2019-05-10T04:50:34.243Z,476.00
2019-05-10T04:51:34.185Z,480.00
2019-05-10T04:52:34.114Z,516.00
2019-05-10T04:53:34.049Z,496.00
2019-05-10T04:54:34.002Z,528.00
2019-05-10T04:55:33.978Z,540.00
2019-05-10T04:56:33.885Z,568.00
2019-05-10T04:57:49.174Z,660.00
2019-05-10T04:58:33.781Z,596.00
2019-05-10T04:59:33.720Z,644.00
2019-05-10T05:00:33.706Z,536.00
2019-05-10T05:01:33.614Z,508.00
2019-05-10T05:02:33.559Z,600.00
2019-05-10T05:03:33.509Z,656.00
2019-05-10T05:04:33.452Z,680.00
2019-05-10T05:05:33.454Z,676.00
2019-05-10T05:06:33.341Z,688.00
2019-05-10T05:07:33.291Z,616.00
2019-05-10T05:08:33.235Z,656.00
2019-05-10T05:09:33.181Z,656.00
2019-05-10T05:10:33.156Z,696.00
2019-05-10T05:11:33.075Z,1016.00
2019-05-10T05:12:33.049Z,1172.00
2019-05-10T05:13:32.966Z,1156.00
2019-05-10T05:14:32.915Z,752.00
2019-05-10T05:15:32.855Z,676.00
2019-05-10T05:16:32.806Z,680.00
2019-05-10T05:17:32.778Z,648.00
2019-05-10T05:18:32.694Z,696.00
2019-05-10T05:19:32.643Z,816.00
2019-05-10T05:20:32.583Z,1104.00
2019-05-10T05:21:32.530Z,888.00
2019-05-10T05:22:32.523Z,852.00
2019-05-10T05:23:32.421Z,908.00
2019-05-10T05:24:32.370Z,1236.00
2019-05-10T05:25:35.222Z,1288.00
2019-05-10T05:26:32.261Z,1148.00
2019-05-10T05:27:32.246Z,1120.00
2019-05-10T05:28:32.156Z,1128.00
2019-05-10T05:29:32.099Z,900.00
2019-05-10T05:30:32.096Z,676.00
2019-05-10T05:31:31.992Z,512.00
2019-05-10T05:32:31.937Z,396.00
2019-05-10T05:33:31.885Z,324.00
2019-05-10T05:34:31.837Z,296.00
2019-05-10T05:35:31.820Z,268.00
2019-05-10T05:36:31.724Z,248.00
2019-05-10T05:37:31.673Z,252.00
2019-05-10T05:38:31.618Z,300.00
2019-05-10T05:39:31.572Z,368.00
2019-05-10T05:40:31.538Z,360.00
2019-05-10T05:41:32.031Z,336.00
2019-05-10T05:42:31.441Z,352.00
2019-05-10T05:43:31.344Z,344.00
2019-05-10T05:44:31.292Z,352.00
2019-05-10T05:45:33.923Z,372.00
2019-05-10T05:46:31.203Z,460.00
2019-05-10T05:47:31.163Z,564.00
2019-05-10T05:48:39.814Z,588.00
2019-05-10T05:49:31.025Z,656.00
2019-05-10T05:50:30.978Z,764.00
2019-05-10T05:51:30.952Z,904.00
2019-05-10T05:52:30.864Z,936.00
2019-05-10T05:53:35.889Z,928.00
2019-05-10T05:54:30.755Z,996.00
2019-05-10T05:55:32.184Z,964.00
2019-05-10T05:56:30.688Z,912.00
2019-05-10T05:57:30.594Z,780.00
2019-05-10T05:58:30.540Z,800.00
2019-05-10T05:59:30.490Z,848.00
2019-05-10T06:00:30.440Z,772.00
2019-05-10T06:01:30.423Z,796.00
2019-05-10T06:02:30.327Z,808.00
2019-05-10T06:03:30.272Z,872.00
2019-05-10T06:04:30.216Z,828.00
2019-05-10T06:05:34.646Z,864.00
2019-05-10T06:06:30.156Z,1128.00
2019-05-10T06:07:31.251Z,1452.00
2019-05-10T06:08:30.355Z,1068.00
2019-05-10T06:09:32.074Z,968.00
2019-05-10T06:10:29.896Z,1052.00
2019-05-10T06:11:35.628Z,1200.00
2019-05-10T06:12:29.825Z,1308.00
2019-05-10T06:13:30.965Z,1072.00
2019-05-10T06:14:29.680Z,904.00
2019-05-10T06:15:31.536Z,1140.00
2019-05-10T06:16:29.577Z,1508.00
2019-05-10T06:17:31.680Z,1564.00
2019-05-10T06:18:29.462Z,1512.00
2019-05-10T06:19:30.733Z,1396.00
2019-05-10T06:20:29.358Z,1576.00
2019-05-10T06:21:29.301Z,1676.00
2019-05-10T06:22:29.288Z,1776.00
2019-05-10T06:23:34.946Z,2212.00
2019-05-10T06:24:29.148Z,2356.00
2019-05-10T06:25:39.394Z,2172.00
2019-05-10T06:26:29.029Z,2760.00
2019-05-10T06:27:28.976Z,3172.00
2019-05-10T06:28:57.060Z,3256.00
2019-05-10T06:29:28.873Z,3200.00
2019-05-10T06:30:28.821Z,2644.00
2019-05-10T06:31:28.784Z,2316.00
2019-05-10T06:32:28.712Z,2748.00
2019-05-10T06:33:28.793Z,2660.00
2019-05-10T06:34:31.994Z,2148.00
2019-05-10T06:35:28.555Z,1460.00
2019-05-10T06:36:28.492Z,1492.00
2019-05-10T06:37:31.348Z,1692.00
2019-05-10T06:38:28.421Z,1760.00
2019-05-10T06:39:28.336Z,1956.00
2019-05-10T06:40:39.417Z,2148.00
2019-05-10T06:41:28.224Z,2152.00
2019-05-10T06:42:28.816Z,1772.00
2019-05-10T06:43:28.121Z,1604.00
2019-05-10T06:44:31.300Z,1436.00
2019-05-10T06:45:28.037Z,1412.00
2019-05-10T06:46:29.304Z,1384.00
2019-05-10T06:47:27.907Z,1304.00
2019-05-10T06:48:33.152Z,1280.00
2019-05-10T06:49:27.832Z,1248.00
2019-05-10T06:50:29.946Z,1224.00
2019-05-10T06:51:27.700Z,1108.00
2019-05-10T06:52:29.667Z,952.00
2019-05-10T06:53:27.589Z,972.00
2019-05-10T06:54:27.530Z,944.00
2019-05-10T06:55:27.518Z,920.00
2019-05-10T06:56:27.427Z,920.00
2019-05-10T06:57:27.369Z,1036.00
2019-05-10T06:58:30.492Z,1112.00
2019-05-10T06:59:27.297Z,1424.00
2019-05-10T07:00:27.209Z,1608.00
2019-05-10T07:01:27.156Z,1516.00
2019-05-10T07:02:32.181Z,1544.00
2019-05-10T07:03:27.052Z,1924.00
2019-05-10T07:04:27.036Z,2092.00
2019-05-10T07:05:26.944Z,2192.00
2019-05-10T07:06:26.889Z,2176.00
2019-05-10T07:07:43.442Z,2528.00
2019-05-10T07:08:26.787Z,2480.00
2019-05-10T07:09:26.762Z,2304.00
2019-05-10T07:10:26.677Z,3164.00
2019-05-10T07:11:26.642Z,3464.00
2019-05-10T07:12:29.949Z,4316.00
2019-05-10T07:13:26.517Z,4148.00
2019-05-10T07:14:27.364Z,3768.00
2019-05-10T07:15:26.413Z,4636.00
2019-05-10T07:16:26.362Z,4796.00
2019-05-10T07:17:26.344Z,5404.00
2019-05-10T07:18:26.250Z,5140.00
2019-05-10T07:19:28.700Z,3868.00
2019-05-10T07:20:29.644Z,3196.00
2019-05-10T07:21:26.091Z,2412.00
2019-05-10T07:22:26.920Z,2040.00
2019-05-10T07:23:27.052Z,1828.00
2019-05-10T07:24:27.090Z,1708.00
2019-05-10T07:25:25.890Z,1684.00
2019-05-10T07:26:26.734Z,1340.00
2019-05-10T07:27:25.798Z,1276.00
2019-05-10T07:28:25.722Z,1416.00
2019-05-10T07:29:29.988Z,1468.00
2019-05-10T07:30:25.615Z,1520.00
2019-05-10T07:31:25.594Z,1716.00
2019-05-10T07:32:25.543Z,2276.00
2019-05-10T07:33:25.456Z,2024.00
2019-05-10T07:34:25.405Z,1752.00
2019-05-10T07:35:25.354Z,2064.00
2019-05-10T07:36:27.147Z,2540.00
2019-05-10T07:37:25.290Z,2528.00
2019-05-10T07:38:30.887Z,1748.00
2019-05-10T07:39:25.139Z,1504.00
2019-05-10T07:40:25.086Z,1692.00
2019-05-10T07:41:26.840Z,2860.00
2019-05-10T07:42:25.026Z,1808.00
2019-05-10T07:43:28.495Z,3460.00
2019-05-10T07:44:24.878Z,3948.00
2019-05-10T07:45:25.734Z,3692.00
2019-05-10T07:46:24.770Z,3788.00
2019-05-10T07:47:30.238Z,4632.00
2019-05-10T07:48:24.664Z,4896.00
2019-05-10T07:49:30.356Z,5056.00
2019-05-10T07:50:24.560Z,4516.00
2019-05-10T07:51:28.916Z,3696.00
2019-05-10T07:52:24.525Z,3824.00
2019-05-10T07:53:25.248Z,3960.00
2019-05-10T07:54:24.353Z,3664.00
2019-05-10T07:55:28.533Z,5444.00
2019-05-10T07:56:24.240Z,5880.00
2019-05-10T07:57:26.814Z,6072.00
2019-05-10T07:58:24.135Z,5640.00
2019-05-10T07:59:29.097Z,5424.00
2019-05-10T08:00:25.436Z,5252.00
2019-05-10T08:01:32.167Z,4508.00
2019-05-10T08:02:23.962Z,4300.00
2019-05-10T08:03:24.022Z,4564.00
2019-05-10T08:04:31.731Z,4816.00
2019-05-10T08:05:23.772Z,5136.00
2019-05-10T08:06:23.728Z,5016.00
2019-05-10T08:07:23.699Z,5248.00
2019-05-10T08:08:23.615Z,6112.00
2019-05-10T08:09:23.568Z,6016.00
2019-05-10T08:10:23.548Z,5548.00
2019-05-10T08:11:23.496Z,6120.00
2019-05-10T08:12:23.416Z,6680.00
2019-05-10T08:13:25.082Z,7056.00
2019-05-10T08:14:25.273Z,6232.00
2019-05-10T08:15:24.762Z,5864.00
2019-05-10T08:16:23.213Z,6020.00
2019-05-10T08:17:23.144Z,6280.00
2019-05-10T08:18:25.389Z,6128.00
2019-05-10T08:19:23.040Z,6436.00
2019-05-10T08:20:39.970Z,5324.00
2019-05-10T08:21:26.243Z,7088.00
2019-05-10T08:22:23.007Z,7288.00
2019-05-10T08:23:26.399Z,7376.00
2019-05-10T08:24:22.822Z,7968.00
2019-05-10T08:25:23.184Z,7872.00
2019-05-10T08:26:24.816Z,6872.00
2019-05-10T08:27:23.060Z,6888.00
2019-05-10T08:28:22.914Z,7104.00
2019-05-10T08:29:22.599Z,8628.00
2019-05-10T08:30:28.763Z,7496.00
2019-05-10T08:31:25.930Z,7036.00
2019-05-10T08:32:25.472Z,5432.00
2019-05-10T08:33:22.918Z,5292.00
2019-05-10T08:34:22.851Z,4512.00
2019-05-10T08:35:22.252Z,5548.00
2019-05-10T08:36:22.172Z,4340.00
2019-05-10T08:37:30.922Z,4516.00
2019-05-10T08:38:22.111Z,4228.00
2019-05-10T08:39:22.463Z,4884.00
2019-05-10T08:40:28.116Z,5232.00
2019-05-10T08:41:22.335Z,5140.00
2019-05-10T08:42:37.812Z,5112.00
2019-05-10T08:43:24.599Z,5628.00
2019-05-10T08:44:23.976Z,5172.00
2019-05-10T08:45:22.673Z,4800.00
2019-05-10T08:46:29.165Z,6412.00
2019-05-10T08:47:26.842Z,6476.00
2019-05-10T08:48:23.325Z,6100.00
2019-05-10T08:49:25.259Z,5924.00
2019-05-10T08:50:43.593Z,6932.00
2019-05-10T08:51:22.747Z,7428.00
2019-05-10T08:52:27.368Z,7552.00
2019-05-10T08:53:23.104Z,7884.00
2019-05-10T08:54:22.098Z,8200.00
2019-05-10T08:55:22.636Z,8452.00
2019-05-10T08:56:24.217Z,6672.00
2019-05-10T08:57:22.274Z,7856.00
2019-05-10T08:58:31.048Z,8196.00
2019-05-10T08:59:25.928Z,8108.00
2019-05-10T09:00:40.265Z,8152.00
2019-05-10T09:01:27.561Z,8092.00
2019-05-10T09:02:28.860Z,6832.00
2019-05-10T09:03:22.759Z,7680.00
2019-05-10T09:04:22.265Z,6440.00
2019-05-10T09:05:28.621Z,7168.00
2019-05-10T09:06:22.070Z,8212.00
2019-05-10T09:07:23.120Z,8332.00
2019-05-10T09:08:24.434Z,7852.00
2019-05-10T09:09:22.715Z,6476.00
2019-05-10T09:10:22.063Z,7360.00
2019-05-10T09:11:22.970Z,7536.00
2019-05-10T09:12:22.934Z,6368.00
2019-05-10T09:13:22.464Z,6072.00
2019-05-10T09:14:23.902Z,7388.00
2019-05-10T09:15:22.261Z,6868.00
2019-05-10T09:16:20.201Z,6756.00
2019-05-10T09:17:23.803Z,5736.00
2019-05-10T09:18:20.106Z,7248.00
2019-05-10T09:19:27.711Z,7564.00
2019-05-10T09:20:22.077Z,7452.00
2019-05-10T09:21:22.189Z,7568.00
2019-05-10T09:22:26.004Z,7608.00
2019-05-10T09:23:22.248Z,7676.00
2019-05-10T09:24:19.848Z,7920.00
2019-05-10T09:25:20.264Z,5920.00
2019-05-10T09:26:19.723Z,6624.00
2019-05-10T09:27:19.673Z,7288.00
2019-05-10T09:28:21.678Z,6500.00
2019-05-10T09:29:21.782Z,5164.00
2019-05-10T09:30:19.537Z,7012.00
2019-05-10T09:31:22.757Z,6880.00
2019-05-10T09:32:21.454Z,5716.00
2019-05-10T09:33:19.390Z,6628.00
2019-05-10T09:34:23.807Z,6528.00
2019-05-10T09:35:19.300Z,6300.00
2019-05-10T09:36:25.093Z,6240.00
2019-05-10T09:37:19.200Z,6652.00
2019-05-10T09:38:19.152Z,4984.00
2019-05-10T09:39:22.571Z,6976.00
2019-05-10T09:40:19.079Z,4652.00
2019-05-10T09:41:19.052Z,4444.00
2019-05-10T09:42:26.574Z,6324.00
2019-05-10T09:43:21.202Z,4492.00
2019-05-10T09:44:18.873Z,4548.00
2019-05-10T09:45:18.826Z,4624.00
2019-05-10T09:46:18.812Z,4656.00
2019-05-10T09:47:18.761Z,4724.00
2019-05-10T09:48:18.711Z,6364.00
2019-05-10T09:49:18.742Z,6540.00
2019-05-10T09:50:18.585Z,6720.00
2019-05-10T09:51:19.208Z,6492.00
2019-05-10T09:52:18.911Z,6260.00
2019-05-10T09:53:23.641Z,6240.00
2019-05-10T09:54:18.399Z,6356.00
2019-05-10T09:55:18.347Z,6124.00
2019-05-10T09:56:18.303Z,5812.00
2019-05-10T09:57:18.290Z,6016.00
2019-05-10T09:58:22.140Z,5852.00
2019-05-10T09:59:18.161Z,5872.00
2019-05-10T10:00:18.112Z,6112.00
2019-05-10T10:01:21.395Z,6444.00
2019-05-10T10:02:18.937Z,6388.00
2019-05-10T10:03:17.975Z,6412.00
2019-05-10T10:04:20.254Z,6200.00
2019-05-10T10:05:18.000Z,6012.00
2019-05-10T10:06:17.842Z,6344.00
2019-05-10T10:07:19.023Z,6328.00
2019-05-10T10:08:17.774Z,6328.00
2019-05-10T10:09:17.696Z,6292.00
2019-05-10T10:10:23.069Z,6092.00
2019-05-10T10:11:18.686Z,6080.00
2019-05-10T10:12:17.681Z,5008.00
2019-05-10T10:13:36.023Z,6476.00
2019-05-10T10:14:17.917Z,6292.00
2019-05-10T10:15:25.254Z,6360.00
2019-05-10T10:16:19.163Z,4760.00
2019-05-10T10:17:20.401Z,4856.00
2019-05-10T10:18:21.258Z,6144.00
2019-05-10T10:19:20.310Z,5940.00
2019-05-10T10:20:17.190Z,6052.00
2019-05-10T10:21:18.937Z,3872.00
2019-05-10T10:22:17.393Z,5824.00
2019-05-10T10:23:17.372Z,5804.00
2019-05-10T10:24:19.995Z,5716.00
2019-05-10T10:25:17.668Z,5496.00
2019-05-10T10:26:18.557Z,4604.00
2019-05-10T10:27:17.211Z,5948.00
2019-05-10T10:28:18.881Z,6180.00
2019-05-10T10:29:17.304Z,5208.00
2019-05-10T10:30:21.084Z,4240.00
2019-05-10T10:31:27.088Z,5392.00
2019-05-10T10:32:16.641Z,5628.00
2019-05-10T10:33:24.492Z,5476.00
2019-05-10T10:34:17.344Z,5448.00
2019-05-10T10:35:20.999Z,5384.00
2019-05-10T10:36:16.459Z,5508.00
2019-05-10T10:37:22.221Z,5644.00
2019-05-10T10:38:17.918Z,6096.00
2019-05-10T10:39:17.046Z,6276.00
2019-05-10T10:40:18.351Z,4516.00
2019-05-10T10:41:17.198Z,4220.00
2019-05-10T10:42:17.700Z,5600.00
2019-05-10T10:43:17.975Z,5556.00
2019-05-10T10:44:18.158Z,4236.00
2019-05-10T10:45:17.376Z,5716.00
2019-05-10T10:46:17.674Z,5876.00
2019-05-10T10:47:17.987Z,6076.00
2019-05-10T10:48:17.863Z,4244.00
2019-05-10T10:49:17.807Z,4012.00
2019-05-10T10:50:17.261Z,5820.00
2019-05-10T10:51:18.030Z,6248.00
2019-05-10T10:52:17.264Z,5848.00
2019-05-10T10:53:17.803Z,5248.00
2019-05-10T10:54:17.612Z,4220.00
2019-05-10T10:55:15.599Z,4224.00
2019-05-10T10:56:17.658Z,4116.00
2019-05-10T10:57:17.907Z,4220.00
2019-05-10T10:58:18.224Z,4252.00
2019-05-10T10:59:15.414Z,4560.00
2019-05-10T11:00:20.284Z,5492.00
2019-05-10T11:01:21.666Z,6008.00
2019-05-10T11:02:31.329Z,5788.00
2019-05-10T11:03:15.232Z,6388.00
2019-05-10T11:04:16.383Z,6540.00
2019-05-10T11:05:15.144Z,6592.00
2019-05-10T11:06:15.508Z,6532.00
2019-05-10T11:07:15.052Z,6264.00
2019-05-10T11:08:15.007Z,5972.00
2019-05-10T11:09:14.962Z,5940.00
2019-05-10T11:10:18.846Z,5880.00
2019-05-10T11:11:14.905Z,6020.00
2019-05-10T11:12:19.899Z,6104.00
2019-05-10T11:13:20.487Z,6124.00
2019-05-10T11:14:14.736Z,5960.00
2019-05-10T11:15:16.648Z,6196.00
2019-05-10T11:16:15.755Z,5564.00
2019-05-10T11:17:14.601Z,6564.00
2019-05-10T11:18:14.591Z,6436.00
2019-05-10T11:19:15.708Z,5276.00
2019-05-10T11:20:14.472Z,5560.00
2019-05-10T11:21:14.423Z,6472.00
2019-05-10T11:22:14.384Z,6292.00
2019-05-10T11:23:16.160Z,5704.00
2019-05-10T11:24:17.906Z,4400.00
2019-05-10T11:25:14.245Z,5856.00
2019-05-10T11:26:14.208Z,6180.00
2019-05-10T11:27:17.143Z,5892.00
2019-05-10T11:28:14.113Z,5840.00
2019-05-10T11:29:25.434Z,4516.00
2019-05-10T11:30:14.030Z,3584.00
2019-05-10T11:31:13.979Z,3332.00
2019-05-10T11:32:16.634Z,3176.00
2019-05-10T11:33:25.897Z,3152.00
2019-05-10T11:34:13.847Z,3476.00
2019-05-10T11:35:18.976Z,4352.00
2019-05-10T11:36:13.758Z,5172.00
2019-05-10T11:37:16.115Z,4952.00
2019-05-10T11:38:16.231Z,5052.00
2019-05-10T11:39:25.330Z,5168.00
2019-05-10T11:40:18.101Z,5392.00
2019-05-10T11:41:20.660Z,5696.00
2019-05-10T11:42:15.511Z,5904.00
2019-05-10T11:43:17.348Z,6156.00
2019-05-10T11:44:13.397Z,5236.00
2019-05-10T11:45:13.354Z,6372.00
2019-05-10T11:46:13.310Z,6324.00
2019-05-10T11:47:23.276Z,5020.00
2019-05-10T11:48:13.254Z,6148.00
2019-05-10T11:49:13.207Z,4392.00
2019-05-10T11:50:27.656Z,4172.00
2019-05-10T11:51:17.293Z,4384.00
2019-05-10T11:52:13.376Z,3664.00
2019-05-10T11:53:17.214Z,5756.00
2019-05-10T11:54:12.954Z,5816.00
2019-05-10T11:55:12.908Z,5836.00
2019-05-10T11:56:14.022Z,5904.00
2019-05-10T11:57:13.821Z,5848.00
2019-05-10T11:58:13.316Z,5824.00
2019-05-10T11:59:16.398Z,5748.00
2019-05-10T12:00:24.659Z,5400.00
2019-05-10T12:01:17.640Z,5360.00
2019-05-10T12:02:33.924Z,4544.00
2019-05-10T12:03:18.457Z,5552.00
2019-05-10T12:05:19.941Z,5416.00
2019-05-10T12:06:12.435Z,5396.00
2019-05-10T12:07:13.024Z,4644.00
2019-05-10T12:08:13.125Z,5296.00
2019-05-10T12:09:12.567Z,5292.00
2019-05-10T12:10:20.682Z,5364.00
2019-05-10T12:12:12.540Z,5596.00
2019-05-10T12:14:13.871Z,5004.00
2019-05-10T12:15:13.745Z,4276.00
2019-05-10T12:16:16.646Z,3796.00
2019-05-10T12:17:14.230Z,4132.00
2019-05-10T12:19:19.679Z,3500.00
2019-05-10T12:20:16.505Z,5364.00
2019-05-10T12:21:11.754Z,3736.00
2019-05-10T12:22:15.810Z,3292.00
2019-05-10T12:23:13.380Z,4160.00
2019-05-10T12:24:32.558Z,5148.00
2019-05-10T12:25:59.929Z,5548.00
2019-05-10T12:26:05.394Z,5308.00
2019-05-10T12:26:15.763Z,4320.00
2019-05-10T12:26:27.645Z,5448.00
2019-05-10T12:26:50.074Z,3728.00
2019-05-10T12:27:22.589Z,5032.00
2019-05-10T12:28:15.371Z,4340.00
2019-05-10T12:29:16.775Z,4216.00
2019-05-10T12:30:11.693Z,5000.00
2019-05-10T12:31:15.080Z,5040.00